createdAt,value
2018-11-01T00:01:21.923Z,10.25
2018-11-01T00:03:50.693Z,13.38
2018-11-01T00:06:19.413Z,14.05
2018-11-01T00:08:48.170Z,12.85
2018-11-01T00:11:17.082Z,19.15
2018-11-01T00:13:46.028Z,14.25
2018-11-01T00:16:14.786Z,11.20
2018-11-01T00:18:43.651Z,11.57
2018-11-01T00:21:13.088Z,10.75
2018-11-01T00:23:42.091Z,12.15
2018-11-01T00:26:10.935Z,10.98
2018-11-01T00:28:39.800Z,13.40
2018-11-01T00:31:08.762Z,11.88
2018-11-01T00:33:37.487Z,16.73
2018-11-01T00:36:06.330Z,15.72
2018-11-01T00:38:35.190Z,11.75
2018-11-01T00:41:04.066Z,12.25
2018-11-01T00:43:32.885Z,11.33
2018-11-01T00:46:02.217Z,14.07
2018-11-01T00:48:30.957Z,12.98
2018-11-01T00:50:59.796Z,13.90
2018-11-01T00:53:28.684Z,16.00
2018-11-01T00:55:58.223Z,10.00
2018-11-01T00:58:27.221Z,10.60
2018-11-01T01:00:56.033Z,13.80
2018-11-01T01:03:24.809Z,14.07
2018-11-01T01:05:54.106Z,12.15
2018-11-01T01:08:22.990Z,11.43
2018-11-01T01:10:51.848Z,17.10
2018-11-01T01:13:20.688Z,15.20
2018-11-01T01:15:49.966Z,18.05
2018-11-01T01:18:18.757Z,17.30
2018-11-01T01:20:47.633Z,17.77
2018-11-01T01:23:17.040Z,18.70
2018-11-01T01:25:46.141Z,17.90
2018-11-01T01:28:14.968Z,19.37
2018-11-01T01:30:43.709Z,23.02
2018-11-01T01:33:12.595Z,23.57
2018-11-01T01:35:41.455Z,17.67
2018-11-01T01:38:10.214Z,17.27
2018-11-01T01:40:38.929Z,20.12
2018-11-01T01:43:07.760Z,14.87
2018-11-01T01:45:36.672Z,18.02
2018-11-01T01:48:06.245Z,15.55
2018-11-01T01:50:35.163Z,13.32
2018-11-01T01:53:04.649Z,14.05
2018-11-01T01:55:33.636Z,14.58
2018-11-01T01:58:02.366Z,15.95
2018-11-01T02:00:31.219Z,18.75
2018-11-01T02:02:59.993Z,18.05
2018-11-01T02:05:28.851Z,16.50
2018-11-01T02:07:57.675Z,12.20
2018-11-01T02:10:28.649Z,13.05
2018-11-01T02:12:57.439Z,15.05
2018-11-01T02:15:26.236Z,13.55
2018-11-01T02:17:55.093Z,14.07
2018-11-01T02:20:23.867Z,12.70
2018-11-01T02:22:52.659Z,12.55
2018-11-01T02:25:21.698Z,15.98
2018-11-01T02:27:55.723Z,13.18
2018-11-01T02:30:25.213Z,16.62
2018-11-01T02:32:54.096Z,19.27
2018-11-01T02:35:22.908Z,16.40
2018-11-01T02:37:52.292Z,17.62
2018-11-01T02:40:21.081Z,19.82
2018-11-01T02:42:49.933Z,19.55
2018-11-01T02:45:19.694Z,17.12
2018-11-01T02:47:48.506Z,19.52
2018-11-01T02:50:17.329Z,20.90
2018-11-01T02:52:46.965Z,20.60
2018-11-01T02:55:15.801Z,18.85
2018-11-01T02:57:44.595Z,23.20
2018-11-01T03:00:15.080Z,20.02
2018-11-01T03:02:44.050Z,18.70
2018-11-01T03:05:13.458Z,22.20
2018-11-01T03:07:42.478Z,22.55
2018-11-01T03:10:12.898Z,23.50
2018-11-01T03:12:41.945Z,20.35
2018-11-01T03:15:13.112Z,21.15
2018-11-01T03:17:42.111Z,18.75
2018-11-01T03:20:12.378Z,19.62
2018-11-01T03:22:41.424Z,19.23
2018-11-01T03:25:10.956Z,19.42
2018-11-01T03:27:39.948Z,18.50
2018-11-01T03:30:09.461Z,19.62
2018-11-01T03:32:38.574Z,17.15
2018-11-01T03:35:08.357Z,17.62
2018-11-01T03:37:37.169Z,17.30
2018-11-01T03:40:08.158Z,17.57
2018-11-01T03:42:37.158Z,16.57
2018-11-01T03:45:07.152Z,15.30
2018-11-01T03:47:35.925Z,15.65
2018-11-01T03:50:04.728Z,14.05
2018-11-01T03:52:33.525Z,15.45
2018-11-01T03:55:02.452Z,15.35
2018-11-01T03:57:32.843Z,13.93
2018-11-01T04:00:01.759Z,15.68
2018-11-01T04:02:30.654Z,16.12
2018-11-01T04:05:00.133Z,17.27
2018-11-01T04:07:29.264Z,17.87
2018-11-01T04:09:58.097Z,14.75
2018-11-01T04:12:26.873Z,12.95
2018-11-01T04:14:56.351Z,17.00
2018-11-01T04:17:25.136Z,22.82
2018-11-01T04:19:54.386Z,17.40
2018-11-01T04:22:23.092Z,17.42
2018-11-01T04:24:51.897Z,16.75
2018-11-01T04:27:20.678Z,14.63
2018-11-01T04:29:49.731Z,16.17
2018-11-01T04:32:18.701Z,15.45
2018-11-01T04:34:47.539Z,16.05
2018-11-01T04:37:16.458Z,19.57
2018-11-01T04:39:45.250Z,18.45
2018-11-01T04:42:14.558Z,16.40
2018-11-01T04:44:43.360Z,15.15
2018-11-01T04:47:12.345Z,15.50
2018-11-01T04:49:41.302Z,17.95
2018-11-01T04:52:10.115Z,18.35
2018-11-01T04:54:39.075Z,16.23
2018-11-01T04:57:07.903Z,12.82
2018-11-01T04:59:36.709Z,13.88
2018-11-01T05:02:05.675Z,15.03
2018-11-01T05:04:34.635Z,14.60
2018-11-01T05:07:04.136Z,16.32
2018-11-01T05:09:32.898Z,14.40
2018-11-01T05:12:01.671Z,13.48
2018-11-01T05:14:30.480Z,12.90
2018-11-01T05:16:59.308Z,13.80
2018-11-01T05:19:28.053Z,13.83
2018-11-01T05:21:56.860Z,30.60
2018-11-01T05:24:25.656Z,12.95
2018-11-01T05:26:54.742Z,13.45
2018-11-01T05:29:23.522Z,13.65
2018-11-01T05:31:52.506Z,11.95
2018-11-01T05:34:21.380Z,10.68
2018-11-01T05:36:50.197Z,12.23
2018-11-01T05:39:19.002Z,14.73
2018-11-01T05:41:48.465Z,13.05
2018-11-01T05:44:17.357Z,14.80
2018-11-01T05:46:46.177Z,12.20
2018-11-01T05:49:15.049Z,12.35
2018-11-01T05:51:46.990Z,12.47
2018-11-01T05:54:15.949Z,12.68
2018-11-01T05:56:54.367Z,13.08
2018-11-01T05:59:39.455Z,10.60
2018-11-01T06:02:45.656Z,12.45
2018-11-01T06:05:14.781Z,11.70
2018-11-01T06:07:56.790Z,13.13
2018-11-01T06:10:36.839Z,15.15
2018-11-01T06:13:09.801Z,12.98
2018-11-01T06:15:39.088Z,16.65
2018-11-01T06:18:08.918Z,13.28
2018-11-01T06:26:25.023Z,14.05
2018-11-01T06:28:53.860Z,15.23
2018-11-01T06:31:22.735Z,14.70
2018-11-01T06:33:51.755Z,13.78
2018-11-01T06:36:21.630Z,14.07
2018-11-01T06:38:50.542Z,16.48
2018-11-01T06:41:19.797Z,13.20
2018-11-01T06:43:49.125Z,15.60
2018-11-01T06:46:20.006Z,35.10
2018-11-01T06:48:48.862Z,15.38
2018-11-01T06:51:17.670Z,15.30
2018-11-01T06:53:46.460Z,15.68
2018-11-01T06:56:15.458Z,16.40
2018-11-01T06:58:44.321Z,19.60
2018-11-01T07:01:14.164Z,16.65
2018-11-01T07:03:43.078Z,14.75
2018-11-01T07:06:11.911Z,15.85
2018-11-01T07:08:40.744Z,14.70
2018-11-01T07:11:09.575Z,13.93
2018-11-01T07:13:38.407Z,12.53
2018-11-01T07:16:07.299Z,14.70
2018-11-01T07:18:36.198Z,12.37
2018-11-01T07:21:05.664Z,16.45
2018-11-01T07:23:34.558Z,11.95
2018-11-01T07:26:03.894Z,14.07
2018-11-01T07:28:32.720Z,15.38
2018-11-01T07:31:02.094Z,13.35
2018-11-01T07:33:30.940Z,14.53
2018-11-01T07:35:59.816Z,13.75
2018-11-01T07:38:29.370Z,12.25
2018-11-01T07:40:58.183Z,12.50
2018-11-01T07:43:26.934Z,12.63
2018-11-01T07:45:55.777Z,11.85
2018-11-01T07:48:25.189Z,14.85
2018-11-01T07:50:58.706Z,18.10
2018-11-01T07:53:27.561Z,15.53
2018-11-01T07:55:56.508Z,15.03
2018-11-01T07:58:25.505Z,18.62
2018-11-01T08:00:54.266Z,14.68
2018-11-01T08:03:23.156Z,15.23
2018-11-01T08:05:52.081Z,14.68
2018-11-01T08:08:20.888Z,14.53
2018-11-01T08:10:49.756Z,15.70
2018-11-01T08:13:18.577Z,15.72
2018-11-01T08:15:47.656Z,13.75
2018-11-01T08:18:16.931Z,27.77
2018-11-01T08:20:45.836Z,19.00
2018-11-01T08:23:14.508Z,18.27
2018-11-01T08:25:43.518Z,17.27
2018-11-01T08:28:12.403Z,21.07
2018-11-01T08:30:41.220Z,23.05
2018-11-01T08:33:10.233Z,18.57
2018-11-01T08:35:38.976Z,12.88
2018-11-01T08:38:07.944Z,13.70
2018-11-01T08:40:36.982Z,13.65
2018-11-01T08:43:06.170Z,23.47
2018-11-01T08:45:35.102Z,15.63
2018-11-01T08:48:03.945Z,13.28
2018-11-01T08:50:32.808Z,25.40
2018-11-01T08:53:02.821Z,14.80
2018-11-01T08:55:31.786Z,12.70
2018-11-01T08:58:00.706Z,13.95
2018-11-01T09:00:29.550Z,16.25
2018-11-01T09:02:58.385Z,12.95
2018-11-01T09:05:27.246Z,15.13
2018-11-01T09:07:56.146Z,11.63
2018-11-01T09:10:24.955Z,12.80
2018-11-01T09:12:54.074Z,17.32
2018-11-01T09:15:23.101Z,13.55
2018-11-01T09:17:51.889Z,14.03
2018-11-01T09:20:20.789Z,15.55
2018-11-01T09:22:49.697Z,23.35
2018-11-01T09:25:19.355Z,19.90
2018-11-01T09:27:48.233Z,30.88
2018-11-01T09:30:17.158Z,17.90
2018-11-01T09:32:46.111Z,14.63
2018-11-01T09:35:14.985Z,12.30
2018-11-01T09:37:44.042Z,15.90
2018-11-01T09:40:14.263Z,13.75
2018-11-01T09:42:43.698Z,11.25
2018-11-01T09:45:12.921Z,11.50
2018-11-01T09:47:42.123Z,12.05
2018-11-01T09:50:11.353Z,11.18
2018-11-01T09:52:40.578Z,13.57
2018-11-01T09:55:09.416Z,13.80
2018-11-01T09:57:38.200Z,11.20
2018-11-01T10:00:09.733Z,11.53
2018-11-01T10:02:39.179Z,10.20
2018-11-01T10:05:08.667Z,18.43
2018-11-01T10:07:37.944Z,11.33
2018-11-01T10:10:08.918Z,10.00
2018-11-01T10:12:40.319Z,12.83
2018-11-01T10:15:10.025Z,9.70
2018-11-01T10:17:39.343Z,9.33
2018-11-01T10:20:09.466Z,8.13
2018-11-01T10:22:38.366Z,7.00
2018-11-01T10:25:08.326Z,7.83
2018-11-01T10:27:37.821Z,7.03
2018-11-01T10:30:09.656Z,6.80
2018-11-01T10:32:38.498Z,9.00
2018-11-01T10:35:07.609Z,6.00
2018-11-01T10:37:39.161Z,6.17
2018-11-01T10:40:10.816Z,6.67
2018-11-01T10:42:40.758Z,7.50
2018-11-01T10:45:10.072Z,6.43
2018-11-01T10:47:39.256Z,6.23
2018-11-01T10:50:10.759Z,7.70
2018-11-01T10:52:39.939Z,6.83
2018-11-01T10:55:09.526Z,7.67
2018-11-01T10:57:38.617Z,7.57
2018-11-01T11:00:12.838Z,6.93
2018-11-01T11:02:41.950Z,7.40
2018-11-01T11:05:11.804Z,7.17
2018-11-01T11:07:40.661Z,7.60
2018-11-01T11:10:09.847Z,8.63
2018-11-01T11:12:38.773Z,7.57
2018-11-01T11:15:08.442Z,5.63
2018-11-01T11:17:37.408Z,5.23
2018-11-01T11:20:07.245Z,4.97
2018-11-01T11:22:36.606Z,5.20
2018-11-01T11:25:06.831Z,7.43
2018-11-01T11:27:35.762Z,6.40
2018-11-01T11:30:05.111Z,7.30
2018-11-01T11:32:33.912Z,4.90
2018-11-01T11:35:02.960Z,5.70
2018-11-01T11:37:31.789Z,5.47
2018-11-01T11:40:00.655Z,3.60
2018-11-01T11:42:29.477Z,5.20
2018-11-01T11:44:58.313Z,4.17
2018-11-01T11:47:27.432Z,3.80
2018-11-01T11:49:56.351Z,4.90
2018-11-01T11:52:27.356Z,4.10
2018-11-01T11:54:56.141Z,4.17
2018-11-01T11:57:42.858Z,3.20
2018-11-01T12:00:15.583Z,3.73
2018-11-01T12:02:46.035Z,4.13
2018-11-01T12:05:15.357Z,4.23
2018-11-01T12:07:44.210Z,4.23
2018-11-01T12:10:14.037Z,4.30
2018-11-01T12:15:40.602Z,5.23
2018-11-01T12:18:09.684Z,4.97
2018-11-01T12:20:38.710Z,5.27
2018-11-01T12:23:07.560Z,4.47
2018-11-01T12:25:41.089Z,6.10
2018-11-01T12:28:10.775Z,5.60
2018-11-01T12:30:39.665Z,5.97
2018-11-01T12:33:14.829Z,4.33
2018-11-01T12:35:44.203Z,8.50
2018-11-01T12:38:15.283Z,3.57
2018-11-01T12:40:44.412Z,3.73
2018-11-01T12:43:13.300Z,4.40
2018-11-01T12:45:42.171Z,4.63
2018-11-01T12:48:11.076Z,3.87
2018-11-01T12:50:39.971Z,3.53
2018-11-01T12:53:08.794Z,7.30
2018-11-01T12:55:37.540Z,3.50
2018-11-01T12:58:06.762Z,4.20
2018-11-01T13:00:35.609Z,4.13
2018-11-01T13:03:04.539Z,3.87
2018-11-01T13:05:33.389Z,4.10
2018-11-01T13:08:02.289Z,6.37
2018-11-01T13:10:31.089Z,5.17
2018-11-01T13:13:00.904Z,4.97
2018-11-01T13:15:29.693Z,5.50
2018-11-01T13:17:58.607Z,4.53
2018-11-01T13:20:27.396Z,4.13
2018-11-01T13:22:56.320Z,4.90
2018-11-01T13:25:25.555Z,4.07
2018-11-01T13:27:54.417Z,5.67
2018-11-01T13:30:23.252Z,6.60
2018-11-01T13:32:52.172Z,5.33
2018-11-01T13:35:21.092Z,5.37
2018-11-01T13:37:49.848Z,7.00
2018-11-01T13:40:19.190Z,3.50
2018-11-01T13:42:47.630Z,3.60
2018-11-01T13:45:16.548Z,3.00
2018-11-01T13:47:45.668Z,2.93
2018-11-01T13:50:14.999Z,6.13
2018-11-01T13:52:44.099Z,4.10
2018-11-01T13:55:13.424Z,3.40
2018-11-01T13:57:42.242Z,5.00
2018-11-01T14:00:12.817Z,3.57
2018-11-01T14:02:42.389Z,3.60
2018-11-01T14:05:13.493Z,3.40
2018-11-01T14:07:43.009Z,4.17
2018-11-01T14:10:13.637Z,3.13
2018-11-01T14:12:42.707Z,3.17
2018-11-01T14:15:12.460Z,4.57
2018-11-01T14:17:41.310Z,4.03
2018-11-01T14:20:11.592Z,4.03
2018-11-01T14:22:40.361Z,3.30
2018-11-01T14:25:09.981Z,5.80
2018-11-01T14:27:38.845Z,5.07
2018-11-01T14:30:10.581Z,4.27
2018-11-01T14:32:39.561Z,3.80
2018-11-01T14:35:08.708Z,3.07
2018-11-01T14:37:37.679Z,2.90
2018-11-01T14:40:08.300Z,2.60
2018-11-01T14:42:37.386Z,2.90
2018-11-01T14:45:06.237Z,4.23
2018-11-01T14:47:35.017Z,4.40
2018-11-01T14:50:03.881Z,3.27
2018-11-01T14:52:32.837Z,5.23
2018-11-01T14:55:08.608Z,5.30
2018-11-01T14:57:37.784Z,6.70
2018-11-01T15:00:05.937Z,6.80
2018-11-01T15:02:34.756Z,7.00
2018-11-01T15:05:03.592Z,7.67
2018-11-01T15:07:32.520Z,8.43
2018-11-01T15:10:01.863Z,7.40
2018-11-01T15:12:30.727Z,7.30
2018-11-01T15:14:59.453Z,8.60
2018-11-01T15:17:28.427Z,9.13
2018-11-01T15:19:57.235Z,13.53
2018-11-01T15:22:26.096Z,9.23
2018-11-01T15:24:54.870Z,8.43
2018-11-01T15:27:23.721Z,9.70
2018-11-01T15:29:52.608Z,10.13
2018-11-01T15:32:28.659Z,10.50
2018-11-01T15:34:58.215Z,10.53
2018-11-01T15:37:27.332Z,9.53
2018-11-01T15:39:56.419Z,12.77
2018-11-01T15:42:25.552Z,22.57
2018-11-01T15:44:54.445Z,15.77
2018-11-01T15:47:23.817Z,10.37
2018-11-01T15:49:52.785Z,9.20
2018-11-01T15:52:21.639Z,11.13
2018-11-01T15:54:50.424Z,7.57
2018-11-01T15:57:19.416Z,7.73
2018-11-01T15:59:48.304Z,11.03
2018-11-01T16:02:17.540Z,10.23
2018-11-01T16:04:46.634Z,8.83
2018-11-01T16:07:15.575Z,7.70
2018-11-01T16:09:44.342Z,5.93
2018-11-01T16:12:27.578Z,6.37
2018-11-01T16:14:56.412Z,7.73
2018-11-01T16:17:25.250Z,8.90
2018-11-01T16:19:54.793Z,9.67
2018-11-01T16:22:23.531Z,10.87
2018-11-01T16:24:52.320Z,7.67
2018-11-01T16:27:21.506Z,7.83
2018-11-01T16:29:50.255Z,9.17
2018-11-01T16:32:19.143Z,9.53
2018-11-01T16:34:48.096Z,10.27
2018-11-01T16:37:17.997Z,14.80
2018-11-01T16:39:46.808Z,11.12
2018-11-01T16:42:15.690Z,11.68
2018-11-01T16:44:44.613Z,13.15
2018-11-01T16:47:13.603Z,14.73
2018-11-01T16:49:54.682Z,12.50
2018-11-01T16:52:24.550Z,13.25
2018-11-01T16:54:53.696Z,10.38
2018-11-01T16:57:32.887Z,13.15
2018-11-01T17:00:01.818Z,11.57
2018-11-01T17:02:34.673Z,11.22
2018-11-01T17:05:04.222Z,11.28
2018-11-01T17:07:38.786Z,8.48
2018-11-01T17:10:09.238Z,10.40
2018-11-01T17:12:38.595Z,17.30
2018-11-01T17:15:09.031Z,16.97
2018-11-01T17:17:38.066Z,13.22
2018-11-01T17:20:07.234Z,18.37
2018-11-01T17:22:36.155Z,19.42
2018-11-01T17:25:05.430Z,18.32
2018-11-01T17:27:34.297Z,22.50
2018-11-01T17:30:03.252Z,18.55
2018-11-01T17:32:32.322Z,13.98
2018-11-01T17:35:03.373Z,12.68
2018-11-01T17:37:32.216Z,13.25
2018-11-01T17:40:01.043Z,12.70
2018-11-01T17:42:29.945Z,12.13
2018-11-01T17:44:58.875Z,20.25
2018-11-01T17:47:27.896Z,67.85
2018-11-01T17:49:56.954Z,40.12
2018-11-01T17:52:26.382Z,17.45
2018-11-01T17:54:55.270Z,11.85
2018-11-01T17:57:24.293Z,9.73
2018-11-01T17:59:53.199Z,10.58
2018-11-01T18:02:22.311Z,11.03
2018-11-01T18:04:50.998Z,10.53
2018-11-01T18:07:20.068Z,9.55
2018-11-01T18:10:00.691Z,11.83
2018-11-01T18:12:29.632Z,11.70
2018-11-01T18:15:00.160Z,8.75
2018-11-01T18:17:29.211Z,8.08
2018-11-01T18:19:58.537Z,7.70
2018-11-01T18:22:27.471Z,10.35
2018-11-01T18:24:56.469Z,11.08
2018-11-01T18:27:25.434Z,9.33
2018-11-01T18:29:54.368Z,10.60
2018-11-01T18:32:23.540Z,14.43
2018-11-01T18:34:52.402Z,11.77
2018-11-01T18:40:16.602Z,13.87
2018-11-01T18:42:45.584Z,12.00
2018-11-01T18:45:15.483Z,12.73
2018-11-01T18:47:44.826Z,14.80
2018-11-01T18:50:15.105Z,14.10
2018-11-01T18:52:45.105Z,11.97
2018-11-01T18:55:14.821Z,17.87
2018-11-01T18:57:43.706Z,24.47
2018-11-01T19:00:14.822Z,14.33
2018-11-01T19:02:43.604Z,14.90
2018-11-01T19:05:13.109Z,13.23
2018-11-01T19:07:42.792Z,16.70
2018-11-01T19:10:12.461Z,10.60
2018-11-01T19:12:41.492Z,10.00
2018-11-01T19:15:11.840Z,5.07
2018-11-01T19:17:41.146Z,3.07
2018-11-01T19:20:10.985Z,4.67
2018-11-01T19:22:39.985Z,3.60
2018-11-01T19:25:09.523Z,3.30
2018-11-01T19:27:38.644Z,3.23
2018-11-01T19:30:09.319Z,2.63
2018-11-01T19:32:38.286Z,3.00
2018-11-01T19:35:08.502Z,3.20
2018-11-01T19:37:54.127Z,3.00
2018-11-01T19:40:23.333Z,3.70
2018-11-01T19:42:52.092Z,3.30
2018-11-01T19:45:39.991Z,3.30
2018-11-01T19:48:08.906Z,3.40
2018-11-01T19:50:37.843Z,5.33
2018-11-01T19:53:06.950Z,3.60
2018-11-01T19:55:36.500Z,4.07
2018-11-01T19:58:05.538Z,2.53
2018-11-01T20:00:34.636Z,2.83
2018-11-01T20:03:03.444Z,2.50
2018-11-01T20:05:32.209Z,3.47
2018-11-01T20:08:01.130Z,2.83
2018-11-01T20:10:30.163Z,2.37
2018-11-01T20:12:58.944Z,2.40
2018-11-01T20:15:27.899Z,3.20
2018-11-01T20:17:56.792Z,2.43
2018-11-01T20:20:25.678Z,2.13
2018-11-01T20:22:54.558Z,2.00
2018-11-01T20:25:23.478Z,2.70
2018-11-01T20:27:52.373Z,5.30
2018-11-01T20:30:21.202Z,2.07
2018-11-01T20:32:50.184Z,1.77
2018-11-01T20:35:19.085Z,2.10
2018-11-01T20:37:48.156Z,1.83
2018-11-01T20:40:17.213Z,2.37
2018-11-01T20:42:47.046Z,2.03
2018-11-01T20:45:15.906Z,3.30
2018-11-01T20:47:44.760Z,4.50
2018-11-01T20:50:14.378Z,4.13
2018-11-01T20:52:43.364Z,3.70
2018-11-01T20:55:12.893Z,2.27
2018-11-01T20:57:41.846Z,2.60
2018-11-01T21:00:13.047Z,2.90
2018-11-01T21:02:41.966Z,6.43
2018-11-01T21:05:10.856Z,5.17
2018-11-01T21:07:39.819Z,3.27
2018-11-01T21:10:09.690Z,3.53
2018-11-01T21:12:39.333Z,3.30
2018-11-01T21:15:09.841Z,4.63
2018-11-01T21:17:39.319Z,3.30
2018-11-01T21:20:08.384Z,5.08
2018-11-01T21:22:37.204Z,6.60
2018-11-01T21:25:07.401Z,9.13
2018-11-01T21:27:36.252Z,3.23
2018-11-01T21:30:05.458Z,1.90
2018-11-01T21:32:34.306Z,1.87
2018-11-01T21:35:03.497Z,2.10
2018-11-01T21:37:32.533Z,2.55
2018-11-01T21:40:01.672Z,2.80
2018-11-01T21:42:30.996Z,1.50
2018-11-01T21:45:00.014Z,1.47
2018-11-01T21:47:28.942Z,2.90
2018-11-01T21:49:57.894Z,1.30
2018-11-01T21:52:26.823Z,1.27
2018-11-01T21:54:55.705Z,1.00
2018-11-01T21:57:24.577Z,1.70
2018-11-01T21:59:53.475Z,1.03
2018-11-01T22:02:22.415Z,1.70
2018-11-01T22:04:51.240Z,1.00
2018-11-01T22:07:20.239Z,1.23
2018-11-01T22:09:49.695Z,0.97
2018-11-01T22:12:18.752Z,1.10
2018-11-01T22:14:47.660Z,1.30
2018-11-01T22:17:16.439Z,1.10
2018-11-01T22:19:45.407Z,1.50
2018-11-01T22:22:14.519Z,1.40
2018-11-01T22:24:43.229Z,1.83
2018-11-01T22:27:12.699Z,2.60
2018-11-01T22:29:41.503Z,1.90
2018-11-01T22:32:10.540Z,2.13
2018-11-01T22:34:39.420Z,2.37
2018-11-01T22:37:08.247Z,1.80
2018-11-01T22:39:37.148Z,2.53
2018-11-01T22:42:06.423Z,1.70
2018-11-01T22:44:35.408Z,2.03
2018-11-01T22:47:09.859Z,1.53
2018-11-01T22:49:38.723Z,1.73
2018-11-01T22:52:08.526Z,1.50
2018-11-01T22:54:37.401Z,1.70
2018-11-01T22:57:06.467Z,1.40
2018-11-01T22:59:35.341Z,1.83
2018-11-01T23:02:05.574Z,1.53
2018-11-01T23:04:34.447Z,1.30
2018-11-01T23:07:03.294Z,1.50
2018-11-01T23:09:32.127Z,1.40
2018-11-01T23:12:01.093Z,1.20
2018-11-01T23:14:30.181Z,1.57
2018-11-01T23:16:59.643Z,1.50
2018-11-01T23:19:28.602Z,1.30
2018-11-01T23:21:57.400Z,1.40
2018-11-01T23:24:27.094Z,1.07
2018-11-01T23:26:55.987Z,1.40
2018-11-01T23:29:25.488Z,1.30
2018-11-01T23:31:54.428Z,1.35
2018-11-01T23:34:23.181Z,1.50
2018-11-01T23:36:57.195Z,1.30
2018-11-01T23:39:31.228Z,1.10
2018-11-01T23:42:05.068Z,1.00
2018-11-01T23:44:39.180Z,1.20
2018-11-01T23:47:13.065Z,2.45
2018-11-01T23:49:51.236Z,2.30
2018-11-01T23:52:21.388Z,1.52
2018-11-01T23:54:50.697Z,1.40
2018-11-01T23:57:19.433Z,1.82
2018-11-01T23:59:48.573Z,1.32
